Wetterstation Vordersexau
Wetterdaten: Woche 22.05.17 - 28.05.17 (KW21)
Datum Zeit Temp. A. Feuchte A. Luftdruck Regen Wind Richtung Taupunkt Windchill Windben
22.05.2017 00:00 9,6 C 79 % 1017,6 hPa 0,0 l/m 0,0 km/h O-SO 6,1 C 9,6 C 0,0 km/h
22.05.2017 01:00 9,8 C 81 % 1017,0 hPa 0,0 l/m 0,0 km/h O-SO 6,7 C 9,8 C 0,0 km/h
22.05.2017 02:00 8,9 C 82 % 1016,8 hPa 0,0 l/m 0,0 km/h O-NO 6,0 C 8,9 C 0,0 km/h
22.05.2017 03:00 8,8 C 82 % 1016,4 hPa 0,0 l/m 0,0 km/h O-NO 5,9 C 8,8 C 0,0 km/h
22.05.2017 04:00 7,6 C 83 % 1016,4 hPa 0,0 l/m 0,0 km/h O-NO 4,9 C 7,6 C 0,0 km/h
22.05.2017 05:00 6,3 C 84 % 1016,6 hPa 0,0 l/m 0,0 km/h O-NO 3,8 C 6,3 C 0,0 km/h
22.05.2017 06:00 7,9 C 84 % 1016,9 hPa 0,0 l/m 0,0 km/h O-NO 5,4 C 7,9 C 0,0 km/h
22.05.2017 07:00 15,7 C 84 % 1016,7 hPa 0,0 l/m 0,0 km/h N-NW 13,0 C 15,7 C 0,0 km/h
22.05.2017 08:00 21,9 C 56 % 1016,6 hPa 0,0 l/m 0,0 km/h W-SW 12,7 C 21,9 C 0,0 km/h
22.05.2017 09:00 24,1 C 50 % 1016,3 hPa 0,0 l/m 0,0 km/h W-SW 13,0 C 24,1 C 0,0 km/h
22.05.2017 10:00 23,5 C 52 % 1016,3 hPa 0,0 l/m 1,9 km/h SO 13,1 C 23,5 C 1,1 km/h
22.05.2017 11:00 23,8 C 48 % 1015,9 hPa 0,0 l/m 5,8 km/h N-NO 12,1 C 23,8 C 3,2 km/h
22.05.2017 12:00 25,6 C 47 % 1015,3 hPa 0,0 l/m 5,2 km/h W 13,4 C 25,6 C 2,9 km/h
22.05.2017 13:00 25,8 C 43 % 1015,1 hPa 0,0 l/m 0,0 km/h W 12,3 C 25,8 C 0,0 km/h
22.05.2017 14:00 27,2 C 39 % 1014,7 hPa 0,0 l/m 0,0 km/h W 12,0 C 27,2 C 0,0 km/h
22.05.2017 15:00 27,7 C 40 % 1014,3 hPa 0,0 l/m 0,0 km/h N-NO 12,9 C 27,7 C 0,0 km/h
22.05.2017 16:00 32,3 C 33 % 1013,7 hPa 0,0 l/m 0,0 km/h S 13,9 C 32,3 C 0,0 km/h
22.05.2017 17:00 34,9 C 29 % 1013,2 hPa 0,0 l/m 0,0 km/h N 14,2 C 34,9 C 0,0 km/h
22.05.2017 18:00 32,4 C 32 % 1013,1 hPa 0,0 l/m 0,0 km/h N-NO 13,6 C 32,4 C 0,0 km/h
22.05.2017 19:00 24,3 C 43 % 1013,1 hPa 0,0 l/m 0,0 km/h SW 10,9 C 24,3 C 0,0 km/h
22.05.2017 20:00 18,6 C 62 % 1013,2 hPa 0,0 l/m 0,0 km/h SW 11,2 C 18,6 C 0,0 km/h
22.05.2017 21:00 15,4 C 68 % 1013,5 hPa 0,0 l/m 0,0 km/h S-SO 9,5 C 15,4 C 0,0 km/h
22.05.2017 22:00 13,8 C 75 % 1014,1 hPa 0,0 l/m 0,0 km/h S-SO 9,4 C 13,8 C 0,0 km/h
22.05.2017 23:00 12,6 C 79 % 1014,4 hPa 0,0 l/m 0,0 km/h SO 9,1 C 12,6 C 0,0 km/h
23.05.2017 00:00 13,0 C 79 % 1014,5 hPa 0,0 l/m 0,0 km/h SO 9,4 C 13,0 C 0,0 km/h
23.05.2017 01:00 12,3 C 80 % 1014,8 hPa 0,0 l/m 0,0 km/h SO 8,9 C 12,3 C 0,0 km/h
23.05.2017 02:00 11,1 C 83 % 1014,9 hPa 0,0 l/m 0,0 km/h SO 8,3 C 11,1 C 0,0 km/h
23.05.2017 03:00 10,6 C 83 % 1014,9 hPa 0,0 l/m 0,0 km/h SO 7,8 C 10,6 C 0,0 km/h
23.05.2017 04:00 10,4 C 84 % 1015,2 hPa 0,0 l/m 0,0 km/h SO 7,8 C 10,4 C 0,0 km/h
23.05.2017 05:00 10,7 C 84 % 1015,2 hPa 0,0 l/m 0,0 km/h O-SO 8,1 C 10,7 C 0,0 km/h
23.05.2017 06:00 12,6 C 84 % 1015,6 hPa 0,0 l/m 0,0 km/h SO 10,0 C 12,6 C 0,0 km/h
23.05.2017 07:00 15,4 C 81 % 1016,2 hPa 0,0 l/m 0,0 km/h SO 12,2 C 15,4 C 0,0 km/h
23.05.2017 08:00 22,4 C 69 % 1016,7 hPa 0,0 l/m 7,1 km/h NW 16,4 C 22,2 C 4,0 km/h
23.05.2017 09:00 26,4 C 51 % 1016,9 hPa 0,0 l/m 0,0 km/h SW 15,4 C 26,4 C 0,0 km/h
23.05.2017 10:00 27,3 C 50 % 1016,9 hPa 0,0 l/m 0,0 km/h W 15,9 C 27,3 C 0,0 km/h
23.05.2017 11:00 27,4 C 48 % 1016,8 hPa 0,0 l/m 0,0 km/h S-SW 15,4 C 27,4 C 0,0 km/h
23.05.2017 12:00 27,9 C 47 % 1016,8 hPa 0,0 l/m 6,5 km/h W 15,5 C 27,9 C 3,6 km/h
23.05.2017 13:00 28,7 C 44 % 1016,3 hPa 0,0 l/m 0,0 km/h W 15,2 C 28,7 C 0,0 km/h
23.05.2017 14:00 27,8 C 47 % 1016,0 hPa 0,0 l/m 4,5 km/h W 15,4 C 27,8 C 2,5 km/h
23.05.2017 15:00 27,4 C 46 % 1016,0 hPa 0,0 l/m 0,0 km/h N 14,7 C 27,4 C 0,0 km/h
23.05.2017 16:00 31,6 C 36 % 1016,3 hPa 0,0 l/m 0,0 km/h N-NO 14,7 C 31,6 C 0,0 km/h
23.05.2017 17:00 31,0 C 33 % 1016,3 hPa 0,0 l/m 11,0 km/h N 12,8 C 30,7 C 6,1 km/h
23.05.2017 18:00 31,7 C 36 % 1016,3 hPa 0,0 l/m 5,2 km/h N 14,8 C 31,7 C 2,9 km/h
23.05.2017 19:00 25,5 C 45 % 1016,8 hPa 0,0 l/m 2,6 km/h W-NW 12,7 C 25,5 C 1,4 km/h
23.05.2017 20:00 22,2 C 54 % 1017,1 hPa 0,0 l/m 0,0 km/h W-NW 12,4 C 22,2 C 0,0 km/h
23.05.2017 21:00 17,9 C 69 % 1018,1 hPa 0,0 l/m 0,0 km/h W-NW 12,1 C 17,9 C 0,0 km/h
23.05.2017 22:00 18,1 C 73 % 1018,9 hPa 0,0 l/m 0,0 km/h O-NO 13,2 C 18,1 C 0,0 km/h
23.05.2017 23:00 17,2 C 71 % 1019,4 hPa 0,0 l/m 0,0 km/h NO 11,9 C 17,2 C 0,0 km/h
24.05.2017 00:00 15,5 C 75 % 1019,7 hPa 0,0 l/m 0,0 km/h N-NO 11,1 C 15,5 C 0,0 km/h
24.05.2017 01:00 15,6 C 77 % 1019,9 hPa 0,0 l/m 0,0 km/h N-NO 11,6 C 15,6 C 0,0 km/h
24.05.2017 02:00 13,5 C 81 % 1019,9 hPa 0,0 l/m 0,0 km/h N-NO 10,3 C 13,5 C 0,0 km/h
24.05.2017 03:00 13,5 C 82 % 1020,2 hPa 0,0 l/m 0,0 km/h N-NO 10,5 C 13,5 C 0,0 km/h
24.05.2017 04:00 12,3 C 82 % 1020,6 hPa 0,0 l/m 0,0 km/h NO 9,3 C 12,3 C 0,0 km/h
24.05.2017 05:00 11,3 C 84 % 1020,8 hPa 0,0 l/m 0,0 km/h NO 8,7 C 11,3 C 0,0 km/h
24.05.2017 06:00 12,4 C 84 % 1021,5 hPa 0,0 l/m 0,0 km/h N-NO 9,8 C 12,4 C 0,0 km/h
24.05.2017 07:00 18,3 C 79 % 1021,6 hPa 0,0 l/m 0,0 km/h N-NW 14,6 C 18,3 C 0,0 km/h
24.05.2017 08:00 22,1 C 55 % 1022,1 hPa 0,0 l/m 0,0 km/h N-NW 12,6 C 22,1 C 0,0 km/h
24.05.2017 09:00 24,5 C 45 % 1022,1 hPa 0,0 l/m 3,2 km/h N-NW 11,8 C 24,5 C 1,8 km/h
24.05.2017 10:00 24,5 C 44 % 1021,8 hPa 0,0 l/m 0,0 km/h W 11,4 C 24,5 C 0,0 km/h
24.05.2017 11:00 23,9 C 46 % 1021,7 hPa 0,0 l/m 11,0 km/h N-NW 11,6 C 22,7 C 6,1 km/h
24.05.2017 12:00 24,1 C 45 % 1021,4 hPa 0,0 l/m 2,6 km/h W 11,4 C 24,1 C 1,4 km/h
24.05.2017 13:00 25,3 C 44 % 1020,7 hPa 0,0 l/m 1,3 km/h W 12,2 C 25,3 C 0,7 km/h
24.05.2017 14:00 25,9 C 38 % 1020,4 hPa 0,0 l/m 3,2 km/h N-NO 10,5 C 25,9 C 1,8 km/h
24.05.2017 15:00 26,2 C 34 % 1020,1 hPa 0,0 l/m 0,0 km/h N 9,1 C 26,2 C 0,0 km/h
24.05.2017 16:00 29,6 C 33 % 1019,8 hPa 0,0 l/m 0,0 km/h NW 11,6 C 29,6 C 0,0 km/h
24.05.2017 17:00 30,1 C 32 % 1019,3 hPa 0,0 l/m 0,0 km/h N 11,6 C 30,1 C 0,0 km/h
24.05.2017 18:00 25,5 C 41 % 1019,2 hPa 0,0 l/m 1,9 km/h N-NO 11,3 C 25,5 C 1,1 km/h
24.05.2017 19:00 22,9 C 47 % 1019,4 hPa 0,0 l/m 0,0 km/h W-NW 11,0 C 22,9 C 0,0 km/h
24.05.2017 20:00 18,9 C 57 % 1019,6 hPa 0,0 l/m 0,0 km/h S-SO 10,2 C 18,9 C 0,0 km/h
24.05.2017 21:00 16,2 C 70 % 1019,8 hPa 0,0 l/m 0,0 km/h S-SO 10,7 C 16,2 C 0,0 km/h
24.05.2017 22:00 16,9 C 70 % 1020,1 hPa 0,0 l/m 0,0 km/h S-SO 11,4 C 16,9 C 0,0 km/h
24.05.2017 23:00 16,8 C 72 % 1020,4 hPa 0,0 l/m 0,0 km/h S-SO 11,7 C 16,8 C 0,0 km/h
25.05.2017 00:00 16,3 C 74 % 1019,9 hPa 0,0 l/m 0,0 km/h S-SO 11,7 C 16,3 C 0,0 km/h
25.05.2017 01:00 15,9 C 75 % 1019,7 hPa 0,0 l/m 0,0 km/h SO 11,5 C 15,9 C 0,0 km/h
25.05.2017 02:00 13,8 C 79 % 1018,9 hPa 0,0 l/m 0,0 km/h SO 10,2 C 13,8 C 0,0 km/h
25.05.2017 03:00 12,8 C 81 % 1018,9 hPa 0,0 l/m 0,0 km/h O-SO 9,6 C 12,8 C 0,0 km/h
25.05.2017 04:00 12,5 C 83 % 1018,9 hPa 0,0 l/m 0,0 km/h O-SO 9,7 C 12,5 C 0,0 km/h
25.05.2017 05:00 11,6 C 83 % 1019,0 hPa 0,0 l/m 0,0 km/h O-SO 8,8 C 11,6 C 0,0 km/h
25.05.2017 06:00 13,8 C 84 % 1019,1 hPa 0,0 l/m 0,0 km/h SO 11,1 C 13,8 C 0,0 km/h
25.05.2017 07:00 18,4 C 79 % 1018,9 hPa 0,0 l/m 0,0 km/h NO 14,7 C 18,4 C 0,0 km/h
25.05.2017 08:00 19,4 C 67 % 1019,2 hPa 0,0 l/m 0,0 km/h W 13,1 C 19,4 C 0,0 km/h
25.05.2017 09:00 24,5 C 58 % 1019,3 hPa 0,0 l/m 0,0 km/h NW 15,7 C 24,5 C 0,0 km/h
25.05.2017 10:00 25,5 C 54 % 1019,0 hPa 0,0 l/m 1,9 km/h NW 15,5 C 25,5 C 1,1 km/h
25.05.2017 11:00 24,8 C 54 % 1018,9 hPa 0,0 l/m 0,0 km/h N 14,8 C 24,8 C 0,0 km/h
25.05.2017 12:00 23,6 C 52 % 1018,4 hPa 0,0 l/m 0,6 km/h N-NO 13,2 C 23,6 C 0,4 km/h
25.05.2017 13:00 25,5 C 49 % 1017,9 hPa 0,0 l/m 11,7 km/h N-NO 14,0 C 24,4 C 6,5 km/h
25.05.2017 14:00 25,8 C 48 % 1017,5 hPa 0,0 l/m 20,1 km/h N 13,9 C 23,7 C 11,2 km/h
25.05.2017 15:00 26,1 C 47 % 1017,0 hPa 0,0 l/m 18,8 km/h N-NO 13,9 C 24,2 C 10,4 km/h
25.05.2017 16:00 28,4 C 41 % 1016,7 hPa 0,0 l/m 24,6 km/h NW 13,9 C 26,8 C 13,7 km/h
25.05.2017 17:00 28,8 C 38 % 1016,3 hPa 0,0 l/m 0,0 km/h N-NO 13,0 C 28,8 C 0,0 km/h
25.05.2017 18:00 27,4 C 39 % 1016,3 hPa 0,0 l/m 1,9 km/h N 12,2 C 27,4 C 1,1 km/h
25.05.2017 19:00 22,8 C 49 % 1016,3 hPa 0,0 l/m 1,3 km/h N 11,5 C 22,8 C 0,7 km/h
25.05.2017 20:00 20,3 C 56 % 1016,5 hPa 0,0 l/m 3,9 km/h NO 11,2 C 20,3 C 2,2 km/h
25.05.2017 21:00 17,2 C 59 % 1017,1 hPa 0,0 l/m 0,0 km/h N-NO 9,1 C 17,2 C 0,0 km/h
25.05.2017 22:00 16,5 C 61 % 1017,1 hPa 0,0 l/m 0,0 km/h O-SO 9,0 C 16,5 C 0,0 km/h
25.05.2017 23:00 14,1 C 65 % 1017,4 hPa 0,0 l/m 0,0 km/h O-SO 7,6 C 14,1 C 0,0 km/h
26.05.2017 00:00 11,4 C 73 % 1017,4 hPa 0,0 l/m 0,0 km/h O-SO 6,7 C 11,4 C 0,0 km/h
26.05.2017 01:00 11,2 C 78 % 1017,0 hPa 0,0 l/m 0,0 km/h O-SO 7,5 C 11,2 C 0,0 km/h
26.05.2017 02:00 10,6 C 80 % 1016,7 hPa 0,0 l/m 0,0 km/h O-SO 7,3 C 10,6 C 0,0 km/h
26.05.2017 03:00 9,8 C 82 % 1016,9 hPa 0,0 l/m 0,0 km/h NO 6,9 C 9,8 C 0,0 km/h
26.05.2017 04:00 9,5 C 83 % 1016,6 hPa 0,0 l/m 0,0 km/h O-NO 6,8 C 9,5 C 0,0 km/h
26.05.2017 05:00 9,1 C 84 % 1016,8 hPa 0,0 l/m 0,0 km/h NO 6,5 C 9,1 C 0,0 km/h
26.05.2017 06:00 10,1 C 84 % 1016,7 hPa 0,0 l/m 0,0 km/h NO 7,5 C 10,1 C 0,0 km/h
26.05.2017 07:00 17,1 C 82 % 1017,0 hPa 0,0 l/m 0,0 km/h N 14,0 C 17,1 C 0,0 km/h
26.05.2017 08:00 24,9 C 53 % 1017,0 hPa 0,0 l/m 0,0 km/h N 14,6 C 24,9 C 0,0 km/h
26.05.2017 09:00 27,1 C 42 % 1016,7 hPa 0,0 l/m 0,0 km/h W 13,1 C 27,1 C 0,0 km/h
26.05.2017 10:00 27,7 C 41 % 1016,4 hPa 0,0 l/m 0,0 km/h W-NW 13,2 C 27,7 C 0,0 km/h
26.05.2017 11:00 27,1 C 43 % 1016,3 hPa 0,0 l/m 0,0 km/h W 13,4 C 27,1 C 0,0 km/h
26.05.2017 12:00 28,0 C 42 % 1015,9 hPa 0,0 l/m 3,9 km/h S 13,9 C 28,0 C 2,2 km/h
26.05.2017 13:00 29,4 C 42 % 1014,8 hPa 0,0 l/m 0,0 km/h W 15,1 C 29,4 C 0,0 km/h
26.05.2017 14:00 31,4 C 36 % 1014,1 hPa 0,0 l/m 0,0 km/h W 14,5 C 31,4 C 0,0 km/h
26.05.2017 15:00 31,7 C 33 % 1013,4 hPa 0,0 l/m 0,0 km/h SW 13,4 C 31,7 C 0,0 km/h
26.05.2017 16:00 35,4 C 27 % 1013,1 hPa 0,0 l/m 7,1 km/h W 13,5 C 35,4 C 4,0 km/h
26.05.2017 17:00 34,7 C 31 % 1012,7 hPa 0,0 l/m 2,6 km/h W 15,0 C 34,7 C 1,4 km/h
26.05.2017 18:00 33,9 C 30 % 1012,6 hPa 0,0 l/m 5,8 km/h NO 13,9 C 33,9 C 3,2 km/h
26.05.2017 19:00 26,4 C 40 % 1012,9 hPa 0,0 l/m 0,0 km/h NO 11,7 C 26,4 C 0,0 km/h
26.05.2017 20:00 23,2 C 47 % 1013,3 hPa 0,0 l/m 0,0 km/h SO 11,3 C 23,2 C 0,0 km/h
26.05.2017 21:00 21,9 C 49 % 1014,1 hPa 0,0 l/m 0,0 km/h O-SO 10,7 C 21,9 C 0,0 km/h
26.05.2017 22:00 18,4 C 56 % 1014,6 hPa 0,0 l/m 0,0 km/h SO 9,5 C 18,4 C 0,0 km/h
26.05.2017 23:00 15,1 C 66 % 1015,0 hPa 0,0 l/m 0,0 km/h SO 8,8 C 15,1 C 0,0 km/h
27.05.2017 00:00 13,3 C 73 % 1015,2 hPa 0,0 l/m 0,0 km/h NO 8,6 C 13,3 C 0,0 km/h
27.05.2017 01:00 13,2 C 75 % 1014,7 hPa 0,0 l/m 0,0 km/h NO 8,9 C 13,2 C 0,0 km/h
27.05.2017 02:00 12,1 C 80 % 1014,8 hPa 0,0 l/m 1,9 km/h O-SO 8,8 C 12,1 C 1,1 km/h
27.05.2017 03:00 11,8 C 80 % 1014,9 hPa 0,0 l/m 0,0 km/h W-NW 8,5 C 11,8 C 0,0 km/h
27.05.2017 04:00 28,4 C 47 % 1016,8 hPa 0,0 l/m 0,0 km/h W-SW 16,0 C 28,4 C 0,0 km/h
27.05.2017 05:00 28,1 C 44 % 1016,8 hPa 0,0 l/m 0,0 km/h W 14,7 C 28,1 C 0,0 km/h
27.05.2017 06:00 28,9 C 44 % 1016,5 hPa 0,0 l/m 2,6 km/h N 15,4 C 28,9 C 1,4 km/h
27.05.2017 07:00 28,8 C 44 % 1016,1 hPa 0,0 l/m 1,3 km/h SW 15,3 C 28,8 C 0,7 km/h
27.05.2017 08:00 29,9 C 44 % 1015,8 hPa 0,0 l/m 0,0 km/h S-SW 16,3 C 29,9 C 0,0 km/h
27.05.2017 09:00 31,1 C 40 % 1015,2 hPa 0,0 l/m 0,0 km/h W 15,9 C 31,1 C 0,0 km/h
27.05.2017 10:00 32,1 C 34 % 1014,8 hPa 0,0 l/m 0,0 km/h W 14,2 C 32,1 C 0,0 km/h
27.05.2017 11:00 32,7 C 32 % 1014,7 hPa 0,0 l/m 7,1 km/h S-SW 13,8 C 32,7 C 4,0 km/h
27.05.2017 12:00 37,1 C 30 % 1014,3 hPa 0,0 l/m 0,0 km/h W 16,6 C 37,1 C 0,0 km/h
27.05.2017 13:00 39,4 C 26 % 1014,2 hPa 0,0 l/m 0,0 km/h W-SW 16,3 C 39,4 C 0,0 km/h
27.05.2017 14:00 37,6 C 29 % 1013,8 hPa 0,0 l/m 0,0 km/h W-SW 16,5 C 37,6 C 0,0 km/h
27.05.2017 15:00 29,4 C 42 % 1014,3 hPa 0,0 l/m 0,0 km/h W 15,1 C 29,4 C 0,0 km/h
27.05.2017 16:00 22,9 C 57 % 1014,7 hPa 0,0 l/m 0,0 km/h W 13,9 C 22,9 C 0,0 km/h
27.05.2017 17:00 19,9 C 63 % 1015,5 hPa 0,0 l/m 0,0 km/h SO 12,6 C 19,9 C 0,0 km/h
27.05.2017 18:00 18,6 C 69 % 1015,7 hPa 0,0 l/m 0,0 km/h O-SO 12,8 C 18,6 C 0,0 km/h
27.05.2017 19:00 17,8 C 71 % 1015,9 hPa 0,0 l/m 0,0 km/h O-SO 12,5 C 17,8 C 0,0 km/h
27.05.2017 20:00 17,3 C 72 % 1015,9 hPa 0,0 l/m 0,0 km/h O-SO 12,2 C 17,3 C 0,0 km/h
27.05.2017 21:00 17,2 C 71 % 1015,8 hPa 0,0 l/m 0,0 km/h O-NO 11,9 C 17,2 C 0,0 km/h
27.05.2017 22:00 16,4 C 74 % 1016,2 hPa 0,0 l/m 0,0 km/h O-NO 11,8 C 16,4 C 0,0 km/h
27.05.2017 23:00 15,0 C 76 % 1016,1 hPa 0,0 l/m 0,0 km/h O-NO 10,8 C 15,0 C 0,0 km/h
28.05.2017 00:00 15,0 C 78 % 1016,0 hPa 0,0 l/m 0,0 km/h O-NO 11,2 C 15,0 C 0,0 km/h
28.05.2017 01:00 14,9 C 78 % 1016,0 hPa 0,0 l/m 0,0 km/h O-NO 11,1 C 14,9 C 0,0 km/h
28.05.2017 02:00 15,4 C 79 % 1016,2 hPa 0,0 l/m 0,0 km/h O-SO 11,8 C 15,4 C 0,0 km/h
28.05.2017 03:00 20,9 C 75 % 1016,8 hPa 0,0 l/m 0,0 km/h SO 16,3 C 20,9 C 0,0 km/h
28.05.2017 04:00 29,3 C 50 % 1016,8 hPa 0,0 l/m 0,0 km/h SO 17,8 C 29,3 C 0,0 km/h
28.05.2017 05:00 32,1 C 45 % 1016,3 hPa 0,0 l/m 0,0 km/h W 18,6 C 32,1 C 0,0 km/h
28.05.2017 06:00 32,8 C 43 % 1016,2 hPa 0,0 l/m 0,0 km/h N 18,5 C 32,8 C 0,0 km/h
28.05.2017 07:00 31,6 C 44 % 1016,1 hPa 0,0 l/m 11,7 km/h N-NO 17,8 C 31,4 C 6,5 km/h
28.05.2017 08:00 32,5 C 44 % 1015,9 hPa 0,0 l/m 0,0 km/h W 18,6 C 32,5 C 0,0 km/h
28.05.2017 09:00 34,3 C 40 % 1015,4 hPa 0,0 l/m 0,0 km/h W 18,7 C 34,3 C 0,0 km/h
28.05.2017 10:00 34,9 C 38 % 1015,2 hPa 0,0 l/m 0,0 km/h S-SW 18,4 C 34,9 C 0,0 km/h
28.05.2017 11:00 34,9 C 39 % 1014,9 hPa 0,0 l/m 0,0 km/h W 18,8 C 34,9 C 0,0 km/h
28.05.2017 12:00 37,2 C 36 % 1014,4 hPa 0,0 l/m 0,0 km/h N 19,6 C 37,2 C 0,0 km/h
28.05.2017 13:00 39,6 C 32 % 1014,2 hPa 0,0 l/m 0,0 km/h N 19,8 C 39,6 C 0,0 km/h
28.05.2017 14:00 38,1 C 31 % 1013,9 hPa 0,0 l/m 0,0 km/h W-NW 18,0 C 38,1 C 0,0 km/h
28.05.2017 15:00 29,9 C 45 % 1014,1 hPa 0,0 l/m 0,0 km/h NO 16,7 C 29,9 C 0,0 km/h
28.05.2017 16:00 24,9 C 60 % 1014,0 hPa 0,0 l/m 0,0 km/h O 16,6 C 24,9 C 0,0 km/h
28.05.2017 17:00 22,4 C 66 % 1014,4 hPa 0,0 l/m 0,0 km/h O 15,7 C 22,4 C 0,0 km/h
28.05.2017 18:00 20,9 C 70 % 1014,8 hPa 0,0 l/m 0,0 km/h O-SO 15,2 C 20,9 C 0,0 km/h
28.05.2017 19:00 19,6 C 73 % 1014,4 hPa 0,0 l/m 0,0 km/h O-NO 14,6 C 19,6 C 0,0 km/h
28.05.2017 20:00 19,3 C 75 % 1013,9 hPa 0,0 l/m 0,0 km/h SO 14,8 C 19,3 C 0,0 km/h
28.05.2017 21:00 18,6 C 77 % 1013,5 hPa 0,0 l/m 0,0 km/h N 14,5 C 18,6 C 0,0 km/h
Min-Datum _ 22.05.17 27.05.17 26.05.17 - 22.05.17 - 22.05.17 22.05.17 22.05.17
_ Min-Zeit 05:56 13:56 18:56 - 00:56 - 05:56 05:56 00:56
Minimum _ 6,3 C 26 % 1012,6 hPa - 0,0 km/h - 3,8 C 6,3 C 0,0 km/h
Max-Datum _ 28.05.17 22.05.17 24.05.17 22.05.17 25.05.17 - 28.05.17 28.05.17 25.05.17
_ Max-Zeit 13:56 05:56 08:56 00:56 16:56 - 13:56 13:56 16:56
Maximum _ 39,6 C 84 % 1022,1 hPa 0,0 l/m 24,6 km/h
NW
- 19,8 C 39,6 C 13,7 km/h
NW
Durchschnitt _ 21,9 C 58 % 1016,6 hPa #0,0 l/m 1,2 km/h W 12,4 C 21,9 C 0,7 km/h
www.sexauwetter.de